Time;durP1;ratioP1;P1;durP2;ratioP2;P2;SDS_P1;SDS_P2;PMS_P1;PMS_P2;Temp;Humidity;BMP_temperature;BMP_pressure;BME280_temperature;BME280_humidity;BME280_pressure;Samples;Min_cycle;Max_cycle;Signal;HPM_P1;HPM_P2
2024/04/16 00:02:06;;;;;;;3.50;1.60;;;;;;;9.41;73.05;98788.36;110681;1209;138682;-68
2024/04/16 00:04:31;;;;;;;3.40;1.90;;;;;;;9.41;73.00;98786.89;110824;1212;99209;-68
2024/04/16 00:06:56;;;;;;;2.80;1.90;;;;;;;9.40;73.11;98805.00;110968;1211;99056;-68
2024/04/16 00:09:22;;;;;;;3.30;2.10;;;;;;;9.40;73.19;98809.64;110663;1212;138193;-68
2024/04/16 00:11:47;;;;;;;5.30;2.70;;;;;;;9.40;73.24;98814.09;110989;1221;98958;-68
2024/04/16 00:14:12;;;;;;;4.60;2.40;;;;;;;9.39;73.26;98818.95;110892;1211;138458;-68
2024/04/16 00:16:37;;;;;;;5.60;2.90;;;;;;;9.38;73.24;98830.41;110851;1212;107704;-68
2024/04/16 00:19:02;;;;;;;4.90;2.70;;;;;;;9.39;73.45;98834.26;110888;1223;99515;-68
2024/04/16 00:21:27;;;;;;;7.90;3.00;;;;;;;9.39;73.42;98842.45;110765;1213;138427;-68
2024/04/16 00:23:53;;;;;;;4.50;2.40;;;;;;;9.39;73.55;98856.20;110843;1212;98983;-68
2024/04/16 00:26:18;;;;;;;10.80;2.50;;;;;;;9.41;73.58;98855.55;110753;1213;140257;-68
2024/04/16 00:28:43;;;;;;;5.00;2.60;;;;;;;9.40;73.42;98858.98;110919;1212;98934;-68
2024/04/16 00:31:09;;;;;;;6.80;2.60;;;;;;;9.36;73.40;98851.63;110863;1212;138404;-67
2024/04/16 00:33:34;;;;;;;5.50;2.20;;;;;;;9.31;73.41;98843.75;110848;1208;107871;-68
2024/04/16 00:35:59;;;;;;;3.20;1.80;;;;;;;9.20;73.25;98834.88;110836;1212;99030;-68
2024/04/16 00:38:24;;;;;;;5.40;1.80;;;;;;;9.12;73.26;98822.23;110795;1208;138262;-67
2024/04/16 00:40:49;;;;;;;3.40;2.00;;;;;;;9.08;73.40;98823.38;110943;1207;98967;-67
2024/04/16 00:43:16;;;;;;;2.90;2.30;;;;;;;9.05;73.34;98830.71;110732;1213;139506;-67
2024/04/16 00:45:48;;;;;;;2.00;1.80;;;;;;;9.00;73.32;98823.36;111000;1212;99523;-67
2024/04/16 00:48:14;;;;;;;3.40;1.60;;;;;;;8.98;73.42;98813.55;110939;1209;112485;-67
2024/04/16 00:50:39;;;;;;;7.80;1.50;;;;;;;8.93;73.37;98809.73;110780;1223;138915;-67
2024/04/16 00:53:05;;;;;;;2.30;1.20;;;;;;;8.91;73.37;98805.83;110893;1213;99006;-67
2024/04/16 00:55:30;;;;;;;2.00;1.00;;;;;;;8.86;73.31;98808.30;110745;1219;138468;-67
2024/04/16 00:57:56;;;;;;;3.20;1.50;;;;;;;8.82;73.52;98804.64;110918;1211;99004;-67
2024/04/16 01:00:21;;;;;;;2.70;1.40;;;;;;;8.80;73.48;98801.00;110790;1213;99040;-68
2024/04/16 01:02:46;;;;;;;2.00;1.30;;;;;;;8.80;73.63;98808.67;110811;1206;138326;-67
2024/04/16 01:05:11;;;;;;;2.70;0.90;;;;;;;8.82;73.63;98810.16;110975;1212;104288;-67
2024/04/16 01:07:37;;;;;;;4.40;1.00;;;;;;;8.79;73.51;98816.71;110724;1212;140373;-67
2024/04/16 01:10:03;;;;;;;1.10;0.80;;;;;;;8.74;73.54;98812.98;110876;1212;99034;-67
2024/04/16 01:12:28;;;;;;;2.20;0.80;;;;;;;8.71;73.68;98813.48;110808;1206;98940;-68
2024/04/16 01:14:53;;;;;;;1.40;1.10;;;;;;;8.69;73.63;98822.54;110835;1211;138499;-67
2024/04/16 01:17:19;;;;;;;2.20;0.80;;;;;;;8.61;73.42;98823.98;110951;1213;99462;-67
2024/04/16 01:19:44;;;;;;;2.60;0.50;;;;;;;8.48;73.49;98829.23;110782;1213;139172;-67
2024/04/16 01:22:10;;;;;;;0.70;0.70;;;;;;;8.31;73.50;98830.88;110941;1215;99036;-67
2024/04/16 01:24:35;;;;;;;6.60;0.40;;;;;;;8.15;73.45;98845.02;110891;1213;99871;-67
2024/04/16 01:27:00;;;;;;;0.40;0.40;;;;;;;7.92;73.48;98857.98;110814;1207;138328;-66
2024/04/16 01:29:25;;;;;;;0.80;0.20;;;;;;;7.59;73.68;98857.18;110914;1221;99038;-66
2024/04/16 01:31:50;;;;;;;0.30;0.10;;;;;;;7.26;73.77;98868.52;110805;1223;138622;-66
2024/04/16 01:34:16;;;;;;;11.20;0.60;;;;;;;6.95;74.09;98877.06;110884;1221;99051;-67
2024/04/16 01:36:41;;;;;;;1.40;0.20;;;;;;;6.75;75.11;98882.30;110918;1206;98972;-66
2024/04/16 01:39:06;;;;;;;4.80;0.40;;;;;;;6.63;76.29;98885.48;110829;1212;137406;-67
2024/04/16 01:41:31;;;;;;;1.20;0.30;;;;;;;6.45;76.08;98895.52;110768;1207;99688;-67
2024/04/16 01:43:57;;;;;;;0.40;0.30;;;;;;;6.27;75.81;98900.23;110746;1212;138308;-68
2024/04/16 01:46:22;;;;;;;0.00;0.00;;;;;;;6.14;76.08;98890.44;110845;1212;99059;-68
2024/04/16 01:48:47;;;;;;;0.70;0.60;;;;;;;6.05;76.23;98895.16;110900;1212;98964;-68
2024/04/16 01:51:12;;;;;;;0.00;0.00;;;;;;;5.90;76.32;98905.86;110757;1223;140186;-68
2024/04/16 01:53:38;;;;;;;0.10;0.10;;;;;;;5.74;76.49;98904.92;110756;1212;99146;-68
2024/04/16 01:56:04;;;;;;;0.20;0.20;;;;;;;5.60;76.88;98910.23;110705;1222;138283;-68
2024/04/16 01:58:30;;;;;;;0.10;0.00;;;;;;;5.47;76.75;98910.55;110894;1216;98949;-68
2024/04/16 02:00:59;;;;;;;0.10;0.10;;;;;;;5.35;77.09;98912.23;110851;1212;98944;-68
2024/04/16 02:03:25;;;;;;;1.70;0.10;;;;;;;5.32;77.73;98913.10;110963;1212;137808;-68
2024/04/16 02:05:50;;;;;;;0.90;0.30;;;;;;;5.31;77.84;98903.20;110973;1209;98966;-68
2024/04/16 02:08:15;;;;;;;0.20;0.20;;;;;;;5.25;77.88;98919.46;110798;1216;138031;-68
2024/04/16 02:10:51;;;;;;;0.40;0.40;;;;;;;5.18;78.13;98912.76;110978;1219;100644;-68
2024/04/16 02:13:16;;;;;;;0.20;0.20;;;;;;;5.15;78.37;98918.92;110839;1210;139374;-68
2024/04/16 02:15:41;;;;;;;2.20;0.30;;;;;;;5.13;78.40;98934.56;110947;1213;100409;-67
2024/04/16 02:18:06;;;;;;;6.60;0.40;;;;;;;5.06;78.51;98933.86;111034;1212;99002;-68
2024/04/16 02:20:31;;;;;;;1.30;0.40;;;;;;;5.01;78.80;98925.42;110809;1212;138251;-68
2024/04/16 02:22:56;;;;;;;0.20;0.20;;;;;;;5.01;78.95;98943.66;111037;1213;98978;-68
2024/04/16 02:25:22;;;;;;;3.20;0.30;;;;;;;4.93;78.96;98937.54;110796;1212;139943;-68
2024/04/16 02:27:47;;;;;;;1.10;0.30;;;;;;;4.89;79.26;98936.96;110997;1212;98980;-68
2024/04/16 02:30:12;;;;;;;5.80;0.40;;;;;;;4.88;79.42;98943.04;110879;1209;98949;-68
2024/04/16 02:32:37;;;;;;;0.90;0.40;;;;;;;4.80;79.48;98929.80;110929;1212;138273;-68
2024/04/16 02:35:03;;;;;;;2.30;0.70;;;;;;;4.75;79.67;98927.02;110964;1209;99004;-68
2024/04/16 02:37:28;;;;;;;1.90;0.90;;;;;;;4.73;79.73;98934.23;110874;1212;138461;-68
2024/04/16 02:39:53;;;;;;;2.20;0.80;;;;;;;4.67;79.81;98935.89;111033;1212;99037;-68
2024/04/16 02:42:19;;;;;;;2.30;1.00;;;;;;;4.64;80.10;98940.14;110653;1223;99130;-68
2024/04/16 02:44:44;;;;;;;6.50;1.40;;;;;;;4.60;80.15;98926.68;110472;1212;138280;-68
2024/04/16 02:47:09;;;;;;;2.80;1.10;;;;;;;4.56;80.51;98924.05;110862;1214;99014;-68
2024/04/16 02:49:34;;;;;;;3.50;1.10;;;;;;;4.55;80.41;98913.30;110594;1219;139568;-68
2024/04/16 02:51:59;;;;;;;3.80;1.00;;;;;;;4.54;80.66;98922.89;110555;1212;99118;-68
2024/04/16 02:54:25;;;;;;;1.70;1.00;;;;;;;4.53;80.86;98919.38;110483;1218;98979;-68
2024/04/16 02:56:50;;;;;;;1.50;1.40;;;;;;;4.49;80.79;98912.85;110429;1212;138399;-69
2024/04/16 02:59:15;;;;;;;2.30;1.20;;;;;;;4.50;81.13;98915.13;110410;1209;99301;-69
2024/04/16 03:01:40;;;;;;;1.40;1.00;;;;;;;4.51;81.38;98913.66;110651;1212;138432;-69
2024/04/16 03:04:05;;;;;;;6.90;1.20;;;;;;;4.50;81.32;98918.14;110893;1212;98974;-68
2024/04/16 03:06:30;;;;;;;4.60;1.50;;;;;;;4.47;81.42;98918.08;110884;1223;99090;-68
2024/04/16 03:08:56;;;;;;;4.50;1.50;;;;;;;4.46;81.33;98916.91;110762;1212;139205;-68
2024/04/16 03:11:21;;;;;;;1.50;1.40;;;;;;;4.43;81.57;98924.98;110806;1212;98980;-69
2024/04/16 03:13:46;;;;;;;2.30;1.80;;;;;;;4.41;81.61;98923.34;110820;1210;138201;-68
2024/04/16 03:16:11;;;;;;;2.20;1.90;;;;;;;4.41;81.83;98928.09;110892;1212;99127;-69
2024/04/16 03:18:37;;;;;;;3.20;1.50;;;;;;;4.39;81.90;98932.60;110947;1212;99026;-69
2024/04/16 03:21:02;;;;;;;5.00;2.10;;;;;;;4.36;82.10;98923.55;110856;1223;138736;-69
2024/04/16 03:23:27;;;;;;;4.00;2.30;;;;;;;4.33;82.06;98922.79;110947;1212;99034;-69
2024/04/16 03:25:52;;;;;;;5.40;2.40;;;;;;;4.31;82.08;98926.59;110733;1212;138318;-69
2024/04/16 03:28:17;;;;;;;3.30;2.40;;;;;;;4.30;82.30;98925.23;110846;1210;98950;-69
2024/04/16 03:30:43;;;;;;;9.40;3.60;;;;;;;4.31;82.66;98921.30;110893;1210;99207;-69
2024/04/16 03:33:09;;;;;;;6.80;3.20;;;;;;;4.34;82.60;98925.59;110758;1212;138628;-69
2024/04/16 03:35:34;;;;;;;7.20;2.90;;;;;;;4.36;82.74;98925.84;110955;1209;99833;-69
2024/04/16 03:37:59;;;;;;;4.90;3.00;;;;;;;4.36;82.85;98923.72;110701;1212;138091;-69
2024/04/16 03:40:24;;;;;;;5.80;3.10;;;;;;;4.36;82.93;98929.55;110772;1213;98969;-69
2024/04/16 03:42:49;;;;;;;7.70;3.50;;;;;;;4.39;83.13;98928.55;110997;1212;99195;-69
2024/04/16 03:45:15;;;;;;;9.30;2.90;;;;;;;4.39;83.08;98922.00;110775;1209;138148;-69
2024/04/16 03:47:40;;;;;;;5.60;3.20;;;;;;;4.38;83.26;98923.09;110946;1212;100424;-69
2024/04/16 03:50:05;;;;;;;4.90;3.40;;;;;;;4.38;83.19;98925.24;110706;1213;138698;-69
2024/04/16 03:52:30;;;;;;;6.80;3.30;;;;;;;4.36;83.08;98917.89;110990;1209;98970;-69
2024/04/16 03:54:56;;;;;;;6.90;3.30;;;;;;;4.35;83.04;98926.09;110971;1206;99083;-69
2024/04/16 03:57:21;;;;;;;3.30;2.40;;;;;;;4.34;83.24;98933.20;110813;1212;139586;-69
2024/04/16 04:02:30;;;;;;;8.80;2.70;;;;;;;4.29;83.45;98929.71;110696;1212;138336;-69
2024/04/16 04:04:55;;;;;;;7.90;3.00;;;;;;;4.27;83.47;98927.84;110905;1209;99241;-69
2024/04/16 04:07:21;;;;;;;7.40;3.10;;;;;;;4.26;83.69;98929.13;110734;1212;138492;-69
2024/04/16 04:09:47;;;;;;;4.50;2.50;;;;;;;4.27;83.74;98925.22;110859;1208;99036;-69
2024/04/16 04:12:13;;;;;;;7.20;2.40;;;;;;;4.29;83.77;98930.61;110890;1212;99018;-69
2024/04/16 04:14:39;;;;;;;4.90;2.50;;;;;;;4.30;83.74;98936.19;110833;1209;138214;-69
2024/04/16 04:17:04;;;;;;;5.30;2.70;;;;;;;4.31;83.75;98935.98;110807;1210;99245;-69
2024/04/16 04:19:29;;;;;;;7.00;2.80;;;;;;;4.32;83.92;98937.33;110856;1206;138484;-69
2024/04/16 04:21:54;;;;;;;4.00;2.20;;;;;;;4.32;84.00;98943.38;110859;1212;98998;-70
2024/04/16 04:24:19;;;;;;;8.00;2.80;;;;;;;4.34;83.91;98943.46;110887;1209;99082;-69
2024/04/16 04:26:45;;;;;;;5.80;2.50;;;;;;;4.37;84.12;98950.36;110901;1212;139678;-69
2024/04/16 04:29:10;;;;;;;6.20;2.50;;;;;;;4.40;84.03;98944.77;110928;1209;99109;-69
2024/04/16 04:31:36;;;;;;;3.40;2.30;;;;;;;4.45;83.99;98959.36;110886;1209;138538;-69
2024/04/16 04:34:01;;;;;;;4.90;2.90;;;;;;;4.51;84.12;98951.66;110914;1212;98959;-69
2024/04/16 04:36:26;;;;;;;13.50;2.80;;;;;;;4.57;84.28;98956.02;110907;1212;98994;-69
2024/04/16 04:38:52;;;;;;;7.60;3.30;;;;;;;4.61;83.95;98960.76;110817;1208;138231;-69
2024/04/16 04:41:17;;;;;;;5.10;3.10;;;;;;;4.65;83.98;98959.35;110778;1212;99073;-69
2024/04/16 04:43:42;;;;;;;5.10;2.60;;;;;;;4.67;84.12;98969.34;110835;1215;138441;-69
2024/04/16 04:46:10;;;;;;;6.80;2.50;;;;;;;4.71;83.97;98969.70;110739;1212;99047;-69
2024/04/16 04:48:35;;;;;;;6.10;2.60;;;;;;;4.73;84.25;98964.63;110714;1212;99121;-70
2024/04/16 04:51:01;;;;;;;5.80;2.70;;;;;;;4.78;84.41;98969.35;110831;1212;138634;-70
2024/04/16 04:53:26;;;;;;;4.50;2.70;;;;;;;4.81;84.16;98976.98;110915;1208;99068;-70
2024/04/16 04:55:51;;;;;;;7.30;2.60;;;;;;;4.83;84.22;98987.85;110795;1208;139187;-70
2024/04/16 04:58:16;;;;;;;7.80;2.40;;;;;;;4.85;84.40;98989.71;110873;1212;97791;-69
2024/04/16 05:00:42;;;;;;;2.80;2.10;;;;;;;4.90;84.33;98989.85;110792;1206;99032;-70
2024/04/16 05:03:07;;;;;;;4.80;2.40;;;;;;;4.96;84.46;99000.05;110533;1212;138201;-70
2024/04/16 05:05:33;;;;;;;5.10;2.10;;;;;;;5.00;84.10;98993.66;110777;1212;99034;-69
2024/04/16 05:07:58;;;;;;;8.10;2.10;;;;;;;5.04;84.25;99002.81;110845;1209;138488;-70
2024/04/16 05:10:24;;;;;;;10.20;2.20;;;;;;;5.08;84.38;99010.59;111003;1208;100188;-69
2024/04/16 05:12:50;;;;;;;3.30;2.10;;;;;;;5.12;84.37;99012.37;110807;1212;99058;-69
2024/04/16 05:15:15;;;;;;;4.60;2.30;;;;;;;5.15;84.29;99009.55;110944;1223;138145;-69
2024/04/16 05:17:40;;;;;;;5.30;2.10;;;;;;;5.18;84.15;99017.89;111095;1212;100721;-69
2024/04/16 05:20:07;;;;;;;7.40;1.90;;;;;;;5.20;84.14;99010.88;110861;1206;138423;-69
2024/04/16 05:22:32;;;;;;;4.80;2.10;;;;;;;5.21;84.06;99020.75;111021;1211;99135;-69
2024/04/16 05:24:57;;;;;;;4.70;2.30;;;;;;;5.21;84.23;99018.11;110906;1212;99089;-69
2024/04/16 05:27:22;;;;;;;9.00;3.60;;;;;;;5.22;84.00;99022.30;110823;1212;137265;-69
2024/04/16 05:29:47;;;;;;;6.80;2.40;;;;;;;5.22;84.02;99019.63;110926;1212;99050;-70
2024/04/16 05:32:14;;;;;;;5.10;2.20;;;;;;;5.24;84.00;99016.71;110713;1209;138013;-69
2024/04/16 05:34:39;;;;;;;4.10;2.20;;;;;;;5.28;83.98;99018.47;110890;1212;98936;-69
2024/04/16 05:37:05;;;;;;;3.90;2.40;;;;;;;5.31;84.00;99024.36;110961;1210;99000;-69
2024/04/16 05:39:30;;;;;;;8.60;2.70;;;;;;;5.31;83.85;99024.16;110688;1206;138213;-70
2024/04/16 05:41:55;;;;;;;6.40;3.00;;;;;;;5.32;83.72;99023.56;111005;1212;98958;-71
2024/04/16 05:44:20;;;;;;;7.10;3.20;;;;;;;5.32;83.65;99029.77;110769;1212;138193;-70
2024/04/16 05:46:45;;;;;;;6.20;2.40;;;;;;;5.35;83.66;99032.84;110952;1223;99042;-70
2024/04/16 05:49:10;;;;;;;8.00;2.80;;;;;;;5.37;83.54;99040.89;110819;1220;138129;-69
2024/04/16 05:51:36;;;;;;;5.40;3.00;;;;;;;5.39;83.61;99039.39;110852;1212;99135;-70
2024/04/16 05:54:03;;;;;;;6.00;2.00;;;;;;;5.41;83.51;99037.85;111073;1228;99048;-70
2024/04/16 05:56:28;;;;;;;7.20;3.10;;;;;;;5.46;83.47;99042.38;110782;1212;139636;-70
2024/04/16 05:58:53;;;;;;;9.50;2.80;;;;;;;5.50;83.46;99042.17;110906;1212;99026;-70
2024/04/16 06:01:19;;;;;;;5.30;3.00;;;;;;;5.55;83.57;99047.81;110753;1210;138749;-70
2024/04/16 06:03:44;;;;;;;5.60;2.40;;;;;;;5.58;83.37;99047.69;110888;1212;99074;-69
2024/04/16 06:06:10;;;;;;;6.90;3.30;;;;;;;5.62;83.43;99064.84;110950;1212;106771;-69
2024/04/16 06:08:35;;;;;;;12.70;2.90;;;;;;;5.63;83.10;99060.56;110792;1212;138539;-69
2024/04/16 06:11:01;;;;;;;5.50;2.80;;;;;;;5.64;83.22;99061.90;110933;1209;99063;-70
2024/04/16 06:13:26;;;;;;;3.60;2.60;;;;;;;5.66;83.14;99057.88;110886;1212;138467;-68
2024/04/16 06:15:51;;;;;;;5.80;3.10;;;;;;;5.70;82.95;99064.79;110935;1209;100042;-68
2024/04/16 06:18:17;;;;;;;11.70;3.20;;;;;;;5.71;83.01;99066.15;110977;1212;98969;-68
2024/04/16 06:20:42;;;;;;;8.80;3.30;;;;;;;5.72;82.74;99066.65;110824;1209;139826;-68
2024/04/16 06:23:08;;;;;;;5.80;2.50;;;;;;;5.73;82.86;99066.23;110772;1212;98974;-69
2024/04/16 06:25:33;;;;;;;6.40;2.40;;;;;;;5.74;82.74;99070.63;110925;1212;139377;-69
2024/04/16 06:27:58;;;;;;;3.80;2.60;;;;;;;5.75;82.53;99060.80;110926;1209;98963;-69
2024/04/16 06:30:26;;;;;;;5.20;2.80;;;;;;;5.78;82.59;99057.83;110831;1209;99050;-68
2024/04/16 06:32:51;;;;;;;7.00;3.30;;;;;;;5.83;82.55;99057.95;110791;1222;138307;-70
2024/04/16 06:35:16;;;;;;;4.60;2.70;;;;;;;5.87;82.67;99064.13;110850;1222;98949;-70
2024/04/16 06:37:42;;;;;;;13.70;2.90;;;;;;;5.91;82.30;99063.27;110878;1212;138267;-69
2024/04/16 06:40:08;;;;;;;6.20;2.80;;;;;;;5.92;82.18;99059.67;110654;1212;99171;-69
2024/04/16 06:42:36;;;;;;;5.00;2.90;;;;;;;5.97;82.32;99059.94;110918;1206;100296;-71
2024/04/16 06:45:03;;;;;;;3.30;2.60;;;;;;;6.01;82.17;99073.55;110970;1212;140104;-69
2024/04/16 06:47:28;;;;;;;8.70;3.90;;;;;;;6.00;81.89;99067.23;110773;1212;99443;-68
2024/04/16 06:49:53;;;;;;;5.60;3.00;;;;;;;6.00;81.97;99064.60;110803;1209;140184;-71
2024/04/16 06:52:18;;;;;;;4.40;2.80;;;;;;;6.02;81.75;99068.92;110932;1210;98940;-70
2024/04/16 06:54:44;;;;;;;5.30;2.60;;;;;;;6.03;81.90;99065.30;110828;1212;99095;-69
2024/04/16 06:57:11;;;;;;;5.70;2.70;;;;;;;6.07;81.74;99063.52;110787;1215;139610;-70
2024/04/16 06:59:36;;;;;;;7.00;2.50;;;;;;;6.04;81.35;99057.27;110909;1211;98837;-69
2024/04/16 07:02:02;;;;;;;6.50;2.90;;;;;;;6.06;81.42;99057.02;110831;1212;138141;-69
2024/04/16 07:04:27;;;;;;;7.60;2.50;;;;;;;6.08;81.44;99063.46;110932;1210;98957;-70
2024/04/16 07:06:53;;;;;;;5.00;3.20;;;;;;;6.07;81.25;99055.54;110931;1209;99143;-69
2024/04/16 07:09:19;;;;;;;5.50;2.60;;;;;;;6.05;81.14;99066.25;110767;1221;138385;-69
2024/04/16 07:11:49;;;;;;;4.20;2.30;;;;;;;6.04;81.00;99064.38;110825;1212;98246;-69
2024/04/16 07:14:16;;;;;;;5.50;3.10;;;;;;;6.02;80.94;99070.16;110996;1212;138054;-70
2024/04/16 07:16:42;;;;;;;4.10;2.40;;;;;;;6.00;80.88;99068.67;110868;1210;107890;-69
2024/04/16 07:19:07;;;;;;;5.50;3.00;;;;;;;5.99;80.74;99060.56;110715;1212;98964;-69
2024/04/16 07:21:32;;;;;;;6.70;2.80;;;;;;;6.00;80.74;99060.13;110647;1209;138784;-69
2024/04/16 07:23:57;;;;;;;4.00;2.50;;;;;;;6.00;80.59;99059.45;110628;1210;100007;-69
2024/04/16 07:26:23;;;;;;;4.90;2.90;;;;;;;6.03;80.37;99068.34;110513;1209;138197;-69
2024/04/16 07:28:48;;;;;;;6.80;2.30;;;;;;;6.04;80.41;99063.52;110766;1212;98722;-70
2024/04/16 07:31:13;;;;;;;6.30;2.50;;;;;;;6.05;80.19;99070.16;110667;1209;99016;-70
2024/04/16 07:33:38;;;;;;;10.50;2.40;;;;;;;6.07;80.28;99067.60;110778;1213;137960;-70
2024/04/16 07:36:08;;;;;;;3.40;2.40;;;;;;;6.10;80.16;99069.55;110901;1209;98958;-70
2024/04/16 07:38:37;;;;;;;4.40;2.20;;;;;;;6.13;80.23;99069.05;110783;1208;138165;-70
2024/04/16 07:41:03;;;;;;;4.20;2.30;;;;;;;6.18;80.09;99073.75;110773;1212;113352;-70
2024/04/16 07:43:28;;;;;;;9.80;2.20;;;;;;;6.27;80.12;99072.29;110758;1209;138475;-69
2024/04/16 07:45:54;;;;;;;5.50;2.30;;;;;;;6.37;80.04;99074.93;110895;1212;99042;-69
2024/04/16 07:48:19;;;;;;;10.00;2.50;;;;;;;6.43;79.87;99063.98;110866;1209;98960;-70
2024/04/16 07:50:50;;;;;;;5.80;1.90;;;;;;;6.51;79.97;99070.14;110859;1212;139661;-70
2024/04/16 07:53:20;;;;;;;17.80;2.20;;;;;;;6.60;79.81;99074.98;110772;1208;108236;-69
2024/04/16 07:55:51;;;;;;;5.30;2.70;;;;;;;6.68;79.82;99072.41;110928;1210;138915;-69
2024/04/16 07:58:16;;;;;;;9.20;2.80;;;;;;;6.76;79.71;99077.50;110831;1206;99123;-69
2024/04/16 08:00:41;;;;;;;6.40;2.30;;;;;;;6.83;79.62;99071.64;110932;1209;100401;-69
2024/04/16 08:03:10;;;;;;;5.40;2.90;;;;;;;6.93;79.61;99078.19;110868;1221;138385;-69
2024/04/16 08:05:36;;;;;;;4.60;2.40;;;;;;;7.00;79.43;99075.48;110823;1223;98972;-69
2024/04/16 08:08:02;;;;;;;5.20;2.20;;;;;;;7.05;79.30;99075.41;110822;1208;138583;-69
2024/04/16 08:10:27;;;;;;;4.50;2.00;;;;;;;7.09;79.15;99075.90;110870;1212;99048;-71
2024/04/16 08:12:52;;;;;;;5.20;2.30;;;;;;;7.13;79.08;99077.83;110958;1212;99052;-69
2024/04/16 08:15:17;;;;;;;8.00;2.30;;;;;;;7.20;79.03;99082.61;110861;1212;138499;-70
2024/04/16 08:17:42;;;;;;;4.30;1.90;;;;;;;7.24;78.82;99093.39;110869;1208;99056;-71
2024/04/16 08:20:11;;;;;;;5.60;2.40;;;;;;;7.21;78.51;99088.61;110764;1206;139802;-69
2024/04/16 08:22:38;;;;;;;6.20;2.40;;;;;;;7.17;78.49;99085.23;110864;1212;101080;-70
2024/04/16 08:25:04;;;;;;;5.60;1.80;;;;;;;7.19;78.29;99092.05;111009;1208;99149;-70
2024/04/16 08:27:31;;;;;;;4.60;1.60;;;;;;;7.21;78.21;99087.71;110953;1208;138772;-69
2024/04/16 08:29:57;;;;;;;4.00;1.80;;;;;;;7.21;78.09;99094.98;110898;1210;98839;-69
2024/04/16 08:32:22;;;;;;;4.60;2.00;;;;;;;7.17;77.96;99094.13;110728;1208;138901;-68
2024/04/16 08:34:47;;;;;;;5.80;2.10;;;;;;;7.13;77.86;99102.87;110890;1212;98966;-68
2024/04/16 08:37:12;;;;;;;4.40;2.60;;;;;;;7.08;77.67;99100.63;110892;1208;98634;-70
2024/04/16 08:39:39;;;;;;;9.30;5.70;;;;;;;7.07;77.77;99106.21;110673;1212;138668;-68
2024/04/16 08:42:07;;;;;;;12.10;7.20;;;;;;;7.05;77.70;99104.18;110945;1212;99113;-67
2024/04/16 08:44:38;;;;;;;5.40;2.70;;;;;;;7.02;77.55;99119.84;110654;1210;139101;-67
2024/04/16 08:47:05;;;;;;;7.20;5.30;;;;;;;6.92;77.42;99129.58;110948;1212;98956;-67
2024/04/16 08:49:33;;;;;;;6.80;4.50;;;;;;;6.80;77.28;99135.56;110811;1220;113372;-67
2024/04/16 08:52:00;;;;;;;6.80;3.70;;;;;;;6.60;77.30;99135.49;110978;1212;140045;-66
2024/04/16 08:54:29;;;;;;;11.10;5.50;;;;;;;6.49;77.42;99130.55;111007;1212;100032;-67
2024/04/16 08:56:54;;;;;;;11.90;2.60;;;;;;;6.50;77.55;99131.73;110894;1212;138664;-68
2024/04/16 08:59:20;;;;;;;14.70;3.20;;;;;;;6.52;77.70;99130.05;110804;1213;97908;-67
2024/04/16 09:01:48;;;;;;;5.20;2.60;;;;;;;6.57;77.78;99127.52;110826;1208;138726;-66
2024/04/16 09:04:18;;;;;;;4.00;1.90;;;;;;;6.61;77.95;99127.29;110740;1211;108000;-67
2024/04/16 09:06:46;;;;;;;3.40;2.70;;;;;;;6.71;78.11;99123.37;110734;1212;98984;-68
2024/04/16 09:09:12;;;;;;;5.40;3.30;;;;;;;6.83;78.15;99122.41;110783;1212;139070;-68
2024/04/16 09:11:37;;;;;;;7.70;2.60;;;;;;;6.91;78.09;99129.63;110797;1209;99079;-68
2024/04/16 09:14:03;;;;;;;6.30;2.80;;;;;;;6.97;77.97;99123.08;110885;1212;138436;-69
2024/04/16 09:16:29;;;;;;;6.80;2.50;;;;;;;7.06;78.08;99124.04;110803;1210;100216;-68
2024/04/16 09:19:13;;;;;;;4.40;2.20;;;;;;;7.11;78.19;99122.87;110932;1212;99075;-68
2024/04/16 09:21:38;;;;;;;6.90;2.20;;;;;;;7.19;78.11;99117.98;110621;1213;138518;-68
2024/04/16 09:24:08;;;;;;;8.60;2.20;;;;;;;7.21;78.05;99119.67;110862;1211;98783;-68
2024/04/16 09:26:34;;;;;;;5.90;2.20;;;;;;;7.24;77.96;99123.45;110711;1207;138448;-67
2024/04/16 09:29:00;;;;;;;10.50;3.00;;;;;;;7.23;78.05;99125.61;110862;1212;99104;-67
2024/04/16 09:31:27;;;;;;;9.80;2.70;;;;;;;7.27;78.02;99128.06;110946;1212;108104;-68
2024/04/16 09:34:04;;;;;;;10.90;2.80;;;;;;;7.31;77.92;99120.17;110679;1212;138666;-69
2024/04/16 09:36:29;;;;;;;6.30;2.00;;;;;;;7.35;77.84;99126.17;110826;1209;107475;-69
2024/04/16 09:38:58;;;;;;;10.90;2.70;;;;;;;7.41;77.75;99126.73;110775;1212;138636;-69
2024/04/16 09:41:28;;;;;;;4.70;2.00;;;;;;;7.42;77.64;99125.98;111053;1207;99086;-67
2024/04/16 09:43:54;;;;;;;8.30;2.80;;;;;;;7.43;77.55;99141.23;110682;1212;140683;-66
2024/04/16 09:46:20;;;;;;;4.60;2.30;;;;;;;7.35;77.30;99134.34;110806;1209;99593;-67
2024/04/16 09:48:47;;;;;;;9.50;2.30;;;;;;;7.27;77.43;99134.48;111046;1225;99257;-66
2024/04/16 09:51:14;;;;;;;8.20;2.60;;;;;;;7.24;77.39;99133.91;110791;1212;139981;-66
2024/04/16 09:53:43;;;;;;;4.90;2.00;;;;;;;7.23;77.48;99132.92;110899;1208;98947;-69
2024/04/16 09:56:09;;;;;;;10.50;2.40;;;;;;;7.27;77.48;99131.95;110853;1212;139339;-66
2024/04/16 09:58:36;;;;;;;12.90;2.90;;;;;;;7.34;77.43;99125.88;110958;1207;100120;-67
2024/04/16 10:01:03;;;;;;;4.90;2.00;;;;;;;7.38;77.29;99128.32;111083;1208;99784;-66
2024/04/16 10:03:30;;;;;;;5.70;2.10;;;;;;;7.43;77.17;99120.27;110757;1212;139282;-67
2024/04/16 10:05:55;;;;;;;8.60;2.00;;;;;;;7.48;77.08;99124.97;110970;1208;99452;-67
2024/04/16 10:08:22;;;;;;;6.90;2.10;;;;;;;7.53;77.02;99123.26;110781;1211;138884;-67
2024/04/16 10:10:49;;;;;;;7.50;2.00;;;;;;;7.60;76.96;99121.45;110898;1208;99062;-66
2024/04/16 10:13:14;;;;;;;6.10;1.90;;;;;;;7.66;76.79;99132.16;110906;1207;104199;-68
2024/04/16 10:15:47;;;;;;;5.70;1.50;;;;;;;7.70;76.74;99125.88;110876;1207;140113;-69
2024/04/16 10:18:14;;;;;;;8.10;1.90;;;;;;;7.76;76.59;99133.71;111001;1212;107850;-70
2024/04/16 10:20:56;;;;;;;7.00;1.70;;;;;;;7.82;76.52;99131.00;110754;1212;138912;-69
2024/04/16 10:23:21;;;;;;;10.50;2.60;;;;;;;7.91;76.32;99126.96;110888;1210;99968;-69
2024/04/16 10:25:52;;;;;;;5.80;2.80;;;;;;;7.98;76.28;99111.08;110796;1211;138937;-68
2024/04/16 10:28:25;;;;;;;6.40;1.60;;;;;;;8.13;76.19;99105.39;110903;1212;100665;-68
2024/04/16 10:31:05;;;;;;;7.80;3.00;;;;;;;8.28;76.08;99102.21;110932;1210;107817;-69
2024/04/16 10:33:45;;;;;;;4.40;1.40;;;;;;;8.41;75.92;99097.20;111071;1209;138579;-68
2024/04/16 10:36:15;;;;;;;6.40;1.90;;;;;;;8.42;75.75;99095.73;110904;1207;100157;-68
2024/04/16 10:38:47;;;;;;;6.20;2.10;;;;;;;8.44;75.81;99090.80;110823;1210;138182;-68
2024/04/16 10:41:14;;;;;;;9.80;2.30;;;;;;;8.59;75.78;99081.50;111000;1209;99548;-68
2024/04/16 10:43:44;;;;;;;8.50;1.70;;;;;;;8.77;75.60;99082.55;110869;1212;98987;-67
2024/04/16 10:46:09;;;;;;;3.30;1.60;;;;;;;8.92;75.29;99086.12;110870;1219;98950;-68
2024/04/16 10:48:36;;;;;;;2.40;1.20;;;;;;;9.00;75.05;99092.55;110773;1207;98988;-69
2024/04/16 10:51:01;;;;;;;7.60;1.40;;;;;;;9.02;74.79;99090.45;110708;1206;137633;-68
2024/04/16 10:53:26;;;;;;;6.50;1.70;;;;;;;9.03;74.49;99081.31;110893;1212;97776;-67
2024/04/16 10:55:51;;;;;;;7.40;1.80;;;;;;;9.05;74.29;99080.50;110826;1212;138089;-67
2024/04/16 10:58:19;;;;;;;4.60;1.60;;;;;;;9.08;74.03;99072.45;110982;1213;99262;-68
2024/04/16 11:00:45;;;;;;;5.80;1.70;;;;;;;9.11;73.86;99080.29;110950;1212;102512;-67
2024/04/16 11:03:14;;;;;;;3.00;1.20;;;;;;;9.09;73.61;99069.88;110809;1209;138879;-68
2024/04/16 11:05:40;;;;;;;5.50;1.20;;;;;;;9.10;73.47;99065.89;110811;1212;99046;-67
2024/04/16 11:08:08;;;;;;;5.90;1.50;;;;;;;9.18;73.33;99069.90;110711;1211;137712;-67
2024/04/16 11:10:35;;;;;;;7.20;1.60;;;;;;;9.27;73.14;99060.55;110727;1212;100819;-68
2024/04/16 11:13:01;;;;;;;5.50;1.40;;;;;;;9.34;72.99;99060.14;110750;1212;99838;-68
2024/04/16 11:15:33;;;;;;;11.00;4.00;;;;;;;9.35;72.80;99062.36;110871;1207;138249;-68
2024/04/16 11:17:58;;;;;;;4.70;1.80;;;;;;;9.32;72.38;99099.49;110936;1211;100609;-68
2024/04/16 11:20:25;;;;;;;11.60;1.40;;;;;;;9.24;72.14;99109.93;110835;1208;138412;-68
2024/04/16 11:22:51;;;;;;;3.70;1.40;;;;;;;9.13;71.83;99108.18;110931;1212;100256;-67
2024/04/16 11:25:17;;;;;;;4.00;1.40;;;;;;;9.04;71.62;99147.86;110919;1208;99048;-68
2024/04/16 11:27:46;;;;;;;6.30;1.10;;;;;;;8.82;71.27;99134.06;110834;1214;138293;-68